VAM | Vabird-VBD

Virtual Vabird! Aerolínea Virtual de habla hispana, desde 2011




 INFORMACIÓN METAR y TAF
METAR FOR LEBL
ADDS - METARS form results

(1307 UTC 12 April 2021)
Data provider http://aviationweather.gov/metar/data/
 
METAR text: LEBL 121300Z 20013KT 180V240 9999 FEW015 14/04 Q1024 NOSIG
Conditions at: LEBL (BARCELONA AIRPOR, ES) observed 1300 UTC 12 April 2021
Temperature: 14.0°C (57°F)
Dewpoint: 4.0°C (39°F) [RH = 51%]
Pressure (altimeter): 30.24 inches Hg (1024.0 mb)
Winds: from the SSW (200 degrees) at 15 MPH (13 knots; 6.7 m/s)
Visibility: 6 or more miles (10+ km)
Ceiling: at least 12,000 feet AGL
Clouds: few clouds at 1500 feet AGL
Weather: no significant weather observed at this time

METAR text: LEBL 121230Z 20012KT 9999 FEW015 14/06 Q1024 NOSIG
Conditions at: LEBL (BARCELONA AIRPOR, ES) observed 1230 UTC 12 April 2021
Temperature: 14.0°C (57°F)
Dewpoint: 6.0°C (43°F) [RH = 58%]
Pressure (altimeter): 30.24 inches Hg (1024.0 mb)
Winds: from the SSW (200 degrees) at 14 MPH (12 knots; 6.2 m/s)
Visibility: 6 or more miles (10+ km)
Ceiling: at least 12,000 feet AGL
Clouds: few clouds at 1500 feet AGL
Weather: no significant weather observed at this time

Forecast for: LEBL (BARCELONA AIRPOR, ES)
Text: TAF LEBL 121100Z 1212/1312 22012KT 9999 FEW010 TX15/1214Z TN09/1306Z
Forecast period: 1200 to 1800 UTC 12 April 2021
Forecast type: FROM: standard forecast or significant change
Winds: from the SW (220 degrees) at 14 MPH (12 knots; 6.2 m/s)
Visibility: 6 or more miles (10+ km)
Ceiling: at least 12,000 feet AGL
Clouds: few clouds at 1000 feet AGL
Weather: no significant weather forecast for this period
Text: BECMG 1218/1220 VRB03KT
Forecast period: 1800 UTC 12 April 2021 to 0800 UTC 13 April 2021
Forecast type: BECOMING: Conditions expected to become as follows by 2000 UTC 12 April 2021
Winds: variable direction winds at 3 MPH (3 knots; 1.5 m/s)
Visibility: 6 or more miles (10+ km)
Ceiling: at least 12,000 feet AGL
Clouds: few clouds at 1000 feet AGL
Weather: no significant weather forecast for this period
Text: BECMG 1308/1310 10010KT
Forecast period: 0800 to 1200 UTC 13 April 2021
Forecast type: BECOMING: Conditions expected to become as follows by 1000 UTC 13 April 2021
Winds: from the E (100 degrees) at 12 MPH (10 knots; 5.1 m/s)
Visibility: 6 or more miles (10+ km)
Ceiling: at least 12,000 feet AGL
Clouds: few clouds at 1000 feet AGL
Weather: no significant weather forecast for this period

 MAPA DE AEROPUERTO

 INFORMACIÓN DE PISTA